Latest Weather Observations for Albany Airport

IDW60801

Issued at 11:14 pm WST Saturday 23 January 2021 (issued every 10 minutes, with the page automatically refreshed every 10 minutes)

About weather observations | Map of weather stations | Latest weather observations for WA | Other Formats
Station Details ID: 009999 Name: ALBANY AIRPORT Lat: -34.94 Lon: 117.82 Height: 68.4 m
Data from the previous 72 hours. | See also: Recent months at Albany Airport
Date/Time
WST
Temp
°C
App
Temp
°C
Dew
Point
°C
Rel
Hum
%
Delta-T
°C
Wind Press
QNH
hPa
Press
MSL
hPa
Rain since
9am
mm
Dir  Spd
km/h
Gust
km/h
Spd
kts
Gust
kts
23/11:00pm 14.3 13.6 13.2 93 0.6 N 9 11 5 6 1004.6 1004.4 0.0
23/10:30pm 14.7 13.9 12.9 89 1.0 NW 9 9 5 5 1004.4 1004.2 0.0
23/10:00pm 15.6 14.8 12.9 84 1.5 W 9 11 5 6 1004.5 1004.3 0.0
23/09:30pm 17.2 16.0 14.1 82 1.8 W 13 13 7 7 1004.2 1004.0 0.0
23/09:00pm 18.1 17.8 14.4 79 2.1 WSW 9 13 5 7 1004.1 1003.9 0.0
23/08:30pm 18.8 18.5 14.3 75 2.6 WSW 9 13 5 7 1004.2 1004.0 0.0
23/08:00pm 18.4 18.5 13.9 75 2.6 SSW 6 7 3 4 1003.7 1003.5 0.0
23/07:30pm 18.9 18.1 14.0 73 2.8 SW 11 17 6 9 1003.6 1003.4 0.0
23/07:00pm 20.0 17.6 13.9 68 3.5 SW 19 28 10 15 1003.3 1003.1 0.0
23/06:30pm 21.0 18.8 14.9 68 3.6 SSW 20 28 11 15 1003.0 1002.8 0.0
23/06:00pm 20.9 18.8 15.2 70 3.4 SW 20 30 11 16 1002.5 1002.3 0.0
23/05:30pm 21.7 19.0 15.5 68 3.7 SSW 24 33 13 18 1001.8 1001.6 0.0
23/05:00pm 22.2 19.5 15.5 66 4.0 SSW 24 32 13 17 1001.6 1001.4 0.0
23/04:30pm 23.5 21.1 16.3 64 4.4 SW 24 33 13 18 1001.3 1001.1 0.0
23/04:00pm 22.8 20.5 16.6 68 3.8 SSW 24 35 13 19 1001.4 1001.2 0.0
23/03:30pm 23.4 21.4 16.4 64 4.3 SSW 22 33 12 18 1001.3 1001.1 0.0
23/03:00pm 24.0 21.3 16.5 63 4.6 SSW 26 41 14 22 1001.3 1001.1 0.0
23/02:30pm 24.6 22.1 16.1 59 5.2 SW 24 33 13 18 1001.3 1001.1 0.0
23/02:00pm 25.1 22.5 16.0 57 5.6 SW 24 35 13 19 1001.5 1001.3 0.0
23/01:30pm 25.1 22.9 16.0 57 5.6 SW 22 33 12 18 1001.3 1001.1 0.0
23/01:00pm 24.9 22.5 15.5 56 5.7 SW 22 35 12 19 1001.4 1001.2 0.0
23/12:30pm 25.1 22.7 16.3 58 5.4 SW 24 39 13 21 1001.3 1001.1 0.0
23/12:00pm 23.5 20.9 15.8 62 4.7 SW 24 33 13 18 1001.7 1001.5 0.0
23/11:30am 22.2 19.8 16.5 70 3.5 SSW 24 35 13 19 1001.8 1001.6 0.0
23/11:00am 23.0 20.8 14.8 60 4.9 SSW 20 30 11 16 1001.7 1001.5 0.0
23/10:30am 24.2 22.6 15.9 59 5.0 SSW 19 28 10 15 1001.4 1001.2 0.0
23/10:00am 23.6 23.5 16.1 62 4.6 SSW 11 20 6 11 1001.2 1001.0 0.0
23/09:30am 23.0 23.9 16.5 67 4.0 WSW 7 13 4 7 1001.0 1000.8 0.0
23/09:00am 21.7 21.3 16.2 71 3.3 SW 13 17 7 9 1001.3 1001.1 0.0
23/08:30am 20.3 20.7 16.3 78 2.4 WSW 9 13 5 7 1001.0 1000.8 0.0
23/08:09am 19.3 19.7 16.2 82 1.9 SW 9 15 5 8 1001.4 1001.2 0.0
23/08:00am 18.7 19.0 16.1 85 1.6 SW 9 13 5 7 1001.4 1001.2 0.0
23/07:30am 17.3 17.7 16.2 93 0.7 SW 9 13 5 7 1001.9 1001.7 0.0
23/07:00am 16.3 16.9 15.8 97 0.3 WNW 7 11 4 6 1001.8 1001.6 0.0
23/06:30am 15.9 16.3 15.4 97 0.3 N 7 9 4 5 1001.6 1001.4 0.0
23/06:19am 15.8 15.8 15.3 97 0.3 N 9 11 5 6 1001.8 1001.6 0.0
23/06:00am 16.2 17.0 15.9 98 0.2 E 6 9 3 5 1002.0 1001.8 0.0
23/05:57am 16.1 16.7 15.8 98 0.2 ENE 7 9 4 5 1001.9 1001.7 0.0
23/05:37am 15.8 17.2 15.5 98 0.2 NNW 2 9 1 5 1001.8 1001.6 0.0
23/05:30am 15.7 17.4 15.2 97 0.3 CALM 0 0 0 0 1001.5 1001.3 0.0
23/05:00am 15.3 16.5 15.0 98 0.2 NNW 2 7 1 4 1001.1 1000.9 0.0
23/04:30am 15.1 16.2 14.6 97 0.3 SW 2 6 1 3 1000.6 1000.4 0.0
23/04:06am 14.5 14.6 14.0 97 0.3 WSW 6 11 3 6 1000.8 1000.6 0.0
23/04:00am 13.9 14.6 13.4 97 0.3 WSW 2 9 1 5 1000.8 1000.6 0.0
23/03:56am 13.8 14.0 13.2 96 0.3 WSW 4 9 2 5 1000.8 1000.6 0.0
23/03:30am 13.8 14.8 13.2 96 0.3 CALM 0 0 0 0 1000.4 1000.2 0.0
23/03:28am 14.4 15.6 13.8 96 0.3 CALM 0 0 0 0 1000.4 1000.2 0.0
23/03:00am 14.8 16.1 14.2 96 0.3 CALM 0 0 0 0 1000.6 1000.4 0.0
23/02:46am 14.9 16.2 14.1 95 0.5 CALM 0 0 0 0 1000.9 1000.7 0.0
23/02:30am 15.4 16.9 14.6 95 0.5 CALM 0 0 0 0 1001.3 1001.1 0.0
23/02:00am 16.0 15.6 15.2 95 0.5 ENE 11 15 6 8 1001.6 1001.4 0.0
23/01:36am 15.8 15.0 15.2 96 0.3 ENE 13 15 7 8 1002.5 1002.3 0.0
23/01:30am 15.7 14.9 15.1 96 0.3 ENE 13 15 7 8 1002.6 1002.4 0.0
23/01:00am 15.1 16.4 14.1 94 0.6 CALM 0 0 0 0 1003.3 1003.1 0.0
23/12:30am 15.7 16.8 14.6 93 0.6 NNW 2 6 1 3 1003.6 1003.4 0.0
23/12:00am 16.1 15.9 14.8 92 0.8 NE 9 13 5 7 1004.0 1003.8 0.0
 
Date/Time
WST
Temp
°C
App
Temp
°C
Dew
Point
°C
Rel
Hum
%
Delta-T
°C
Wind Press
QNH
hPa
Press
MSL
hPa
Rain since
9am
mm
Dir  Spd
km/h
Gust
km/h
Spd
kts
Gust
kts
22/11:30pm 16.5 16.4 14.9 90 0.9 E 9 11 5 6 1004.2 1004.0 0.0
22/11:23pm 16.8 16.4 15.2 90 0.9 ENE 11 15 6 8 1004.4 1004.2 0.0
22/11:00pm 17.1 15.2 15.3 89 1.1 ENE 19 24 10 13 1004.1 1003.9 0.0
22/10:30pm 17.4 16.7 15.4 88 1.2 ENE 13 19 7 10 1004.3 1004.1 0.0
22/10:00pm 17.9 16.6 15.7 87 1.3 ENE 17 24 9 13 1004.7 1004.5 0.0
22/09:30pm 18.0 16.7 15.8 87 1.3 ENE 17 22 9 12 1004.8 1004.6 0.0
22/09:00pm 17.9 16.3 15.9 88 1.2 ESE 19 24 10 13 1004.6 1004.4 0.0
22/08:30pm 17.7 16.3 15.5 87 1.3 ESE 17 20 9 11 1004.5 1004.3 0.0
22/08:22pm 17.8 16.0 15.6 87 1.3 ESE 19 24 10 13 1004.5 1004.3 0.0
22/08:00pm 18.0 17.4 15.6 86 1.4 ESE 13 19 7 10 1004.9 1004.7 0.0
22/07:30pm 18.5 16.7 15.6 83 1.7 E 19 26 10 14 1004.8 1004.6 0.0
22/07:00pm 19.3 17.3 15.6 79 2.2 ESE 20 26 11 14 1004.8 1004.6 0.0
22/06:30pm 20.5 18.8 15.7 74 2.9 ESE 19 22 10 12 1004.8 1004.6 0.0
22/06:00pm 21.0 18.1 16.0 73 3.0 ESE 26 35 14 19 1004.4 1004.2 0.0
22/05:30pm 21.5 18.0 16.5 73 3.0 ESE 30 37 16 20 1004.2 1004.0 0.0
22/05:00pm 22.2 18.5 16.0 68 3.8 SE 30 39 16 21 1004.2 1004.0 0.0
22/04:30pm 23.2 20.0 16.3 65 4.2 SE 28 35 15 19 1004.2 1004.0 0.0
22/04:00pm 23.8 19.8 16.1 62 4.7 ESE 32 37 17 20 1004.5 1004.3 0.0
22/03:30pm 24.4 21.1 16.1 60 5.1 ESE 28 35 15 19 1004.8 1004.6 0.0
22/03:00pm 25.2 22.2 16.9 60 5.2 ESE 28 37 15 20 1005.1 1004.9 0.0
22/02:30pm 25.3 22.4 16.2 57 5.6 ESE 26 35 14 19 1005.4 1005.2 0.0
22/02:00pm 26.3 24.2 16.3 54 6.2 E 22 33 12 18 1005.9 1005.7 0.0
22/01:30pm 26.0 24.3 16.3 55 6.0 E 20 30 11 16 1006.1 1005.9 0.0
22/01:00pm 25.5 23.4 16.1 56 5.8 ENE 22 30 12 16 1006.5 1006.3 0.0
22/12:30pm 26.0 24.3 16.3 55 6.0 E 20 30 11 16 1007.0 1006.8 0.0
22/12:00pm 24.6 22.2 15.5 57 5.5 E 22 30 12 16 1007.5 1007.3 0.0
22/11:30am 24.0 21.6 15.5 59 5.1 E 22 32 12 17 1008.0 1007.8 0.0
22/11:00am 23.0 20.9 15.1 61 4.7 E 20 28 11 15 1008.5 1008.3 0.0
22/10:30am 22.3 19.8 15.2 64 4.2 E 22 32 12 17 1009.1 1008.9 0.0
22/10:00am 21.8 19.3 15.2 66 3.9 ENE 22 32 12 17 1009.6 1009.4 0.0
22/09:30am 21.1 18.8 15.6 71 3.3 E 22 30 12 16 1010.1 1009.9 0.0
22/09:00am 19.6 17.4 14.8 74 2.8 E 20 32 11 17 1010.4 1010.2 0.2
22/08:30am 18.5 16.3 14.8 79 2.2 E 20 26 11 14 1010.9 1010.7 0.2
22/08:00am 17.8 15.7 15.1 84 1.6 ENE 20 28 11 15 1011.3 1011.1 0.2
22/07:30am 17.5 15.5 15.0 85 1.5 E 19 26 10 14 1011.4 1011.2 0.2
22/07:00am 17.2 16.0 15.0 87 1.3 ENE 15 20 8 11 1011.7 1011.5 0.2
22/06:30am 17.0 15.9 15.2 89 1.0 E 15 20 8 11 1011.7 1011.5 0.2
22/06:00am 16.8 16.9 15.5 92 0.8 E 9 15 5 8 1011.7 1011.5 0.2
22/05:30am 16.7 16.8 15.6 93 0.6 E 9 11 5 6 1011.8 1011.6 0.2
22/05:00am 16.5 15.5 15.5 94 0.6 ENE 15 19 8 10 1011.8 1011.6 0.2
22/04:30am 16.7 16.6 15.9 95 0.5 ENE 11 13 6 7 1011.8 1011.6 0.2
22/04:05am 16.8 17.2 16.2 96 0.4 E 9 13 5 7 1011.8 1011.6 0.2
22/04:00am 16.7 17.4 16.1 96 0.4 E 7 11 4 6 1011.7 1011.5 0.2
22/03:46am 16.8 17.5 16.0 95 0.5 ENE 7 9 4 5 1011.8 1011.6 0.2
22/03:30am 16.8 17.1 16.0 95 0.5 ENE 9 13 5 7 1011.8 1011.6 0.2
22/03:00am 16.9 16.8 16.1 95 0.5 E 11 15 6 8 1012.2 1012.0 0.2
22/02:56am 16.9 16.8 16.1 95 0.5 E 11 15 6 8 1012.2 1012.0 0.2
22/02:30am 17.1 16.6 16.0 93 0.7 E 13 20 7 11 1012.5 1012.3 0.2
22/02:28am 17.1 16.6 16.0 93 0.7 E 13 20 7 11 1012.5 1012.3 0.2
22/02:00am 17.3 16.5 16.2 93 0.7 E 15 22 8 12 1012.6 1012.4 0.2
22/01:30am 17.4 17.5 16.6 95 0.5 E 11 15 6 8 1012.8 1012.6 0.2
22/01:00am 17.3 17.1 16.7 96 0.4 ESE 13 17 7 9 1012.9 1012.7 0.2
22/12:58am 17.2 17.0 16.6 96 0.4 E 13 17 7 9 1012.9 1012.7 0.2
22/12:47am 17.3 16.7 16.7 96 0.4 E 15 20 8 11 1013.0 1012.8 0.2
22/12:30am 17.2 17.3 16.6 96 0.4 E 11 15 6 8 1013.3 1013.1 0.2
22/12:03am 17.2 17.3 16.4 95 0.5 ESE 11 13 6 7 1013.5 1013.3 0.2
22/12:00am 17.2 17.3 16.4 95 0.5 ESE 11 15 6 8 1013.4 1013.2 0.2
 
Date/Time
WST
Temp
°C
App
Temp
°C
Dew
Point
°C
Rel
Hum
%
Delta-T
°C
Wind Press
QNH
hPa
Press
MSL
hPa
Rain since
9am
mm
Dir  Spd
km/h
Gust
km/h
Spd
kts
Gust
kts
21/11:30pm 17.2 16.9 16.4 95 0.5 ESE 13 17 7 9 1013.8 1013.6 0.2
21/11:00pm 17.5 18.1 16.9 96 0.4 ESE 9 11 5 6 1014.3 1014.1 0.2
21/10:44pm 17.5 18.1 16.7 95 0.5 ESE 9 13 5 7 1014.4 1014.2 0.2
21/10:30pm 17.3 17.4 16.5 95 0.5 E 11 13 6 7 1014.5 1014.3 0.2
21/10:11pm 17.3 17.5 16.7 96 0.4 ENE 11 13 6 7 1014.6 1014.4 0.2
21/10:00pm 17.3 17.5 16.7 96 0.4 E 11 15 6 8 1014.7 1014.5 0.2
21/09:30pm 17.5 17.0 16.9 96 0.4 E 15 17 8 9 1014.8 1014.6 0.0
21/09:00pm 17.7 18.0 17.1 96 0.4 ESE 11 13 6 7 1014.7 1014.5 0.0
21/08:30pm 17.7 16.7 16.7 94 0.6 ESE 17 19 9 10 1014.6 1014.4 0.0
21/08:10pm 18.1 16.9 16.1 88 1.2 ESE 17 22 9 12 1014.5 1014.3 0.0
21/08:09pm 18.2 17.0 16.0 87 1.3 ESE 17 22 9 12 1014.5 1014.3 0.0
21/08:00pm 18.5 17.9 15.7 84 1.7 E 13 19 7 10 1014.4 1014.2 0.0
21/07:30pm 18.3 17.9 16.1 87 1.3 ESE 13 17 7 9 1014.2 1014.0 0.0
21/07:00pm 18.6 18.2 16.2 86 1.4 SE 13 17 7 9 1014.1 1013.9 0.0
21/06:30pm 18.5 17.8 16.3 87 1.3 SE 15 20 8 11 1014.3 1014.1 0.0
21/06:00pm 19.1 17.9 16.0 82 1.8 SE 17 26 9 14 1014.1 1013.9 0.0
21/05:30pm 19.3 17.8 15.4 78 2.3 SE 17 24 9 13 1013.8 1013.6 0.0
21/05:00pm 19.4 17.7 15.7 79 2.2 SE 19 24 10 13 1013.9 1013.7 0.0
21/04:37pm 19.5 18.0 16.2 81 2.0 ESE 19 24 10 13 1013.9 1013.7 0.0
21/04:30pm 19.3 17.6 16.3 83 1.8 SE 20 26 11 14 1013.9 1013.7 0.0
21/04:11pm 19.3 17.3 16.5 84 1.7 ESE 22 28 12 15 1014.1 1013.9 0.0
21/04:00pm 19.8 18.2 15.9 78 2.3 SE 19 24 10 13 1014.1 1013.9 0.0
21/03:30pm 20.0 19.1 15.8 77 2.5 SSE 15 20 8 11 1014.3 1014.1 0.0
21/03:00pm 20.5 19.3 16.1 76 2.6 SSE 17 22 9 12 1014.4 1014.2 0.0
21/02:30pm 20.5 19.3 16.1 76 2.6 SE 17 22 9 12 1014.5 1014.3 0.0
21/02:00pm 21.0 19.8 16.0 73 3.0 SSE 17 24 9 13 1014.4 1014.2 0.0
21/01:30pm 21.3 19.9 15.6 70 3.4 SE 17 26 9 14 1014.6 1014.4 0.0
21/01:00pm 21.5 20.0 15.3 68 3.7 SSE 17 24 9 13 1014.8 1014.6 0.0
21/12:30pm 21.4 20.1 15.9 71 3.3 SE 17 22 9 12 1015.0 1014.8 0.0
21/12:00pm 21.2 19.4 15.5 70 3.4 SE 19 26 10 14 1015.3 1015.1 0.0
21/11:30am 21.6 21.1 15.9 70 3.4 ESE 13 20 7 11 1015.5 1015.3 0.0
21/11:00am 20.2 18.6 15.0 72 3.1 ESE 17 26 9 14 1015.6 1015.4 0.0
21/10:30am 20.4 18.9 15.4 73 3.0 SE 17 24 9 13 1015.7 1015.5 0.0
21/10:25am 20.2 18.7 15.2 73 3.0 SE 17 24 9 13 1015.8 1015.6 0.0
21/10:00am 19.8 18.7 15.4 76 2.6 ESE 15 20 8 11 1015.8 1015.6 0.0
21/09:30am 18.9 18.4 16.0 83 1.7 SE 13 20 7 11 1016.1 1015.9 0.0
21/09:00am 18.5 18.1 16.1 86 1.4 ESE 13 19 7 10 1016.3 1016.1 0.0
21/08:30am 18.2 17.3 15.8 86 1.4 SE 15 17 8 9 1016.4 1016.2 0.0
21/08:00am 17.9 17.8 16.1 89 1.1 SE 11 15 6 8 1016.1 1015.9 0.0
21/07:46am 17.6 17.2 16.1 91 0.9 SSE 13 19 7 10 1016.1 1015.9 0.0
21/07:30am 17.6 16.8 16.1 91 0.9 SE 15 24 8 13 1016.1 1015.9 0.0
21/07:28am 17.6 16.8 16.1 91 0.9 SE 15 24 8 13 1016.0 1015.8 0.0
21/07:18am 17.7 17.2 16.0 90 1.0 SE 13 17 7 9 1015.9 1015.7 0.0
21/07:00am 17.7 17.7 16.2 91 0.9 SE 11 15 6 8 1015.8 1015.6 0.0
21/06:56am 17.7 17.6 16.0 90 1.0 SE 11 17 6 9 1015.7 1015.5 0.0
21/06:30am 17.7 16.9 16.0 90 1.0 SE 15 19 8 10 1015.4 1015.2 0.0
21/06:00am 17.3 16.9 16.2 93 0.7 SSE 13 17 7 9 1015.4 1015.2 0.0
21/05:57am 17.3 17.3 16.2 93 0.7 SSE 11 17 6 9 1015.5 1015.3 0.0
21/05:36am 17.6 18.0 16.3 92 0.8 SSE 9 15 5 8 1015.5 1015.3 0.0
21/05:30am 17.6 18.0 16.3 92 0.8 SSE 9 15 5 8 1015.6 1015.4 0.0
21/05:00am 17.7 17.3 16.2 91 0.9 S 13 19 7 10 1015.7 1015.5 0.0
21/04:30am 17.8 17.7 16.1 90 1.0 S 11 13 6 7 1015.4 1015.2 0.0
21/04:00am 17.9 17.5 16.1 89 1.1 S 13 17 7 9 1015.1 1014.9 0.0
21/03:30am 17.9 18.3 16.2 90 1.0 S 9 17 5 9 1015.0 1014.8 0.0
21/03:00am 18.2 19.1 16.5 90 1.0 S 7 11 4 6 1014.8 1014.6 0.0
21/02:30am 18.3 19.2 16.5 89 1.1 SSE 7 11 4 6 1014.9 1014.7 0.0
21/02:00am 18.3 19.1 16.3 88 1.2 SE 7 13 4 7 1015.2 1015.0 0.0
21/01:30am 18.3 18.3 16.3 88 1.2 S 11 17 6 9 1015.5 1015.3 0.0
21/01:00am 18.3 18.8 16.5 89 1.1 S 9 15 5 8 1015.4 1015.2 0.0
21/12:30am 18.3 17.9 16.3 88 1.2 SSW 13 17 7 9 1015.4 1015.2 0.0
21/12:00am 18.5 19.1 16.8 90 1.0 SSW 9 13 5 7 1015.3 1015.1 0.0
 
Date/Time
WST
Temp
°C
App
Temp
°C
Dew
Point
°C
Rel
Hum
%
Delta-T
°C
Wind Press
QNH
hPa
Press
MSL
hPa
Rain since
9am
mm
Dir  Spd
km/h
Gust
km/h
Spd
kts
Gust
kts
20/11:30pm 18.5 18.7 16.8 90 1.0 S 11 17 6 9 1015.3 1015.1 0.0

Other formats

Comma delimited format used in spreadsheet applications
http://www.bom.gov.au/fwo/IDW60801/IDW60801.94802.axf

JavaScript Object Notation format (JSON) in row-major order
http://www.bom.gov.au/fwo/IDW60801/IDW60801.94802.json

Data quality

Most of these data are generated automatically and are frequently updated. Quality checks on data are not normally performed. It is possible for incorrect values to appear. Refer to information at About Latest Weather Observations and please check the disclaimer before using these data.